sensor_id;sensor_type;location;lat;lon;timestamp;pressure;altitude;pressure_sealevel;temperature;humidity
7730;BME280;3908;52.310;7.230;2023-02-28T00:00:38;51281.97;;;-145.83;100.00
7730;BME280;3908;52.310;7.230;2023-02-28T00:03:25;51272.22;;;-145.83;100.00
7730;BME280;3908;52.310;7.230;2023-02-28T00:06:12;51297.63;;;-145.83;100.00
7730;BME280;3908;52.310;7.230;2023-02-28T00:09:01;51276.13;;;-145.83;100.00
7730;BME280;3908;52.310;7.230;2023-02-28T00:11:48;51283.94;;;-145.83;100.00
7730;BME280;3908;52.310;7.230;2023-02-28T00:14:35;51272.22;;;-145.83;100.00
7730;BME280;3908;52.310;7.230;2023-02-28T00:17:22;51319.16;;;-145.83;100.00
7730;BME280;3908;52.310;7.230;2023-02-28T00:20:10;51280.03;;;-145.83;100.00
7730;BME280;3908;52.310;7.230;2023-02-28T00:22:58;51281.97;;;-145.83;100.00
7730;BME280;3908;52.310;7.230;2023-02-28T00:25:46;51274.16;;;-145.83;100.00
7730;BME280;3908;52.310;7.230;2023-02-28T00:28:33;51287.84;;;-145.83;100.00
7730;BME280;3908;52.310;7.230;2023-02-28T00:31:20;51287.84;;;-145.83;100.00
7730;BME280;3908;52.310;7.230;2023-02-28T00:34:07;51285.91;;;-145.83;100.00
7730;BME280;3908;52.310;7.230;2023-02-28T00:36:54;51246.78;;;-145.83;100.00
7730;BME280;3908;52.310;7.230;2023-02-28T00:39:41;51274.16;;;-145.83;100.00
7730;BME280;3908;52.310;7.230;2023-02-28T00:42:29;51258.50;;;-145.83;100.00
7730;BME280;3908;52.310;7.230;2023-02-28T00:45:17;51262.44;;;-145.83;100.00
7730;BME280;3908;52.310;7.230;2023-02-28T00:48:04;51311.31;;;-145.83;100.00
7730;BME280;3908;52.310;7.230;2023-02-28T00:50:51;51295.69;;;-145.83;100.00
7730;BME280;3908;52.310;7.230;2023-02-28T00:53:38;51256.56;;;-145.83;100.00
7730;BME280;3908;52.310;7.230;2023-02-28T00:56:25;51250.69;;;-145.83;100.00
7730;BME280;3908;52.310;7.230;2023-02-28T00:59:14;51256.56;;;-145.83;100.00
7730;BME280;3908;52.310;7.230;2023-02-28T01:02:02;51270.25;;;-145.83;100.00
7730;BME280;3908;52.310;7.230;2023-02-28T01:04:49;51254.59;;;-145.83;100.00
7730;BME280;3908;52.310;7.230;2023-02-28T01:07:36;51291.75;;;-145.83;100.00
7730;BME280;3908;52.310;7.230;2023-02-28T01:10:24;51266.34;;;-145.83;100.00
7730;BME280;3908;52.310;7.230;2023-02-28T01:13:12;51266.34;;;-145.83;100.00
7730;BME280;3908;52.310;7.230;2023-02-28T01:16:00;51260.47;;;-145.83;100.00
7730;BME280;3908;52.310;7.230;2023-02-28T01:18:47;51246.78;;;-145.83;100.00
7730;BME280;3908;52.310;7.230;2023-02-28T01:21:35;51291.75;;;-145.83;100.00
7730;BME280;3908;52.310;7.230;2023-02-28T01:24:22;51246.78;;;-145.83;100.00
7730;BME280;3908;52.310;7.230;2023-02-28T01:27:09;51258.50;;;-145.83;100.00
7730;BME280;3908;52.310;7.230;2023-02-28T01:29:56;51223.28;;;-145.83;100.00
7730;BME280;3908;52.310;7.230;2023-02-28T01:32:44;51254.59;;;-145.83;100.00
7730;BME280;3908;52.310;7.230;2023-02-28T01:35:32;51305.47;;;-145.83;100.00
7730;BME280;3908;52.310;7.230;2023-02-28T01:38:19;51266.34;;;-145.83;100.00
7730;BME280;3908;52.310;7.230;2023-02-28T01:41:07;51274.16;;;-145.83;100.00
7730;BME280;3908;52.310;7.230;2023-02-28T01:44:00;51289.81;;;-145.83;100.00
7730;BME280;3908;52.310;7.230;2023-02-28T01:46:49;51254.59;;;-145.83;100.00
7730;BME280;3908;52.310;7.230;2023-02-28T01:49:37;51272.22;;;-145.83;100.00
7730;BME280;3908;52.310;7.230;2023-02-28T01:52:25;51283.94;;;-145.83;100.00
7730;BME280;3908;52.310;7.230;2023-02-28T01:55:15;51266.34;;;-145.83;100.00
7730;BME280;3908;52.310;7.230;2023-02-28T01:58:04;51266.34;;;-145.83;100.00
7730;BME280;3908;52.310;7.230;2023-02-28T02:00:52;51248.72;;;-145.83;100.00
7730;BME280;3908;52.310;7.230;2023-02-28T02:03:39;51291.75;;;-145.83;100.00
7730;BME280;3908;52.310;7.230;2023-02-28T02:06:34;51274.16;;;-145.83;100.00
7730;BME280;3908;52.310;7.230;2023-02-28T02:09:21;51276.13;;;-145.83;100.00
7730;BME280;3908;52.310;7.230;2023-02-28T02:12:14;51287.84;;;-145.83;100.00
7730;BME280;3908;52.310;7.230;2023-02-28T02:15:09;51287.84;;;-145.83;100.00
7730;BME280;3908;52.310;7.230;2023-02-28T02:18:03;51295.69;;;-145.83;100.00
7730;BME280;3908;52.310;7.230;2023-02-28T02:21:15;51274.16;;;-145.83;100.00
7730;BME280;3908;52.310;7.230;2023-02-28T02:27:28;51272.22;;;-145.83;100.00
7730;BME280;3908;52.310;7.230;2023-02-28T02:30:37;51274.16;;;-145.83;100.00
7730;BME280;3908;52.310;7.230;2023-02-28T02:36:59;51276.13;;;-145.83;100.00
7730;BME280;3908;52.310;7.230;2023-02-28T02:39:53;51260.47;;;-145.83;100.00
7730;BME280;3908;52.310;7.230;2023-02-28T02:42:47;51315.25;;;-145.83;100.00
7730;BME280;3908;52.310;7.230;2023-02-28T02:45:41;51352.41;;;-145.83;100.00
7730;BME280;3908;52.310;7.230;2023-02-28T02:48:31;51256.56;;;-145.83;100.00
7730;BME280;3908;52.310;7.230;2023-02-28T02:51:21;51293.72;;;-145.83;100.00
7730;BME280;3908;52.310;7.230;2023-02-28T02:54:14;51274.16;;;-145.83;100.00
7730;BME280;3908;52.310;7.230;2023-02-28T02:57:05;51262.44;;;-145.83;100.00
7730;BME280;3908;52.310;7.230;2023-02-28T02:59:55;51244.81;;;-145.83;100.00
7730;BME280;3908;52.310;7.230;2023-02-28T03:02:44;51295.69;;;-145.83;100.00
7730;BME280;3908;52.310;7.230;2023-02-28T03:05:35;51266.34;;;-145.83;100.00
7730;BME280;3908;52.310;7.230;2023-02-28T03:08:27;51264.38;;;-145.83;100.00
7730;BME280;3908;52.310;7.230;2023-02-28T03:11:16;51264.38;;;-145.83;100.00
7730;BME280;3908;52.310;7.230;2023-02-28T03:14:14;51268.28;;;-145.83;100.00
7730;BME280;3908;52.310;7.230;2023-02-28T03:17:28;51272.22;;;-145.83;100.00
7730;BME280;3908;52.310;7.230;2023-02-28T03:20:27;51268.28;;;-145.83;100.00
7730;BME280;3908;52.310;7.230;2023-02-28T03:23:22;51260.47;;;-145.83;100.00
7730;BME280;3908;52.310;7.230;2023-02-28T03:26:16;51270.25;;;-145.83;100.00
7730;BME280;3908;52.310;7.230;2023-02-28T03:29:10;51270.25;;;-145.83;100.00
7730;BME280;3908;52.310;7.230;2023-02-28T03:32:05;51283.94;;;-145.83;100.00
7730;BME280;3908;52.310;7.230;2023-02-28T03:34:58;51262.44;;;-145.83;100.00
7730;BME280;3908;52.310;7.230;2023-02-28T03:37:53;51285.91;;;-145.83;100.00
7730;BME280;3908;52.310;7.230;2023-02-28T03:40:45;51285.91;;;-145.83;100.00
7730;BME280;3908;52.310;7.230;2023-02-28T03:43:37;51297.63;;;-145.83;100.00
7730;BME280;3908;52.310;7.230;2023-02-28T03:46:32;51254.59;;;-145.83;100.00
7730;BME280;3908;52.310;7.230;2023-02-28T03:49:24;51274.16;;;-145.83;100.00
7730;BME280;3908;52.310;7.230;2023-02-28T03:52:13;51272.22;;;-145.83;100.00
7730;BME280;3908;52.310;7.230;2023-02-28T03:55:05;51258.50;;;-145.83;100.00
7730;BME280;3908;52.310;7.230;2023-02-28T03:57:59;51287.84;;;-145.83;100.00
7730;BME280;3908;52.310;7.230;2023-02-28T04:00:52;51246.78;;;-145.83;100.00
7730;BME280;3908;52.310;7.230;2023-02-28T04:03:41;51313.28;;;-145.83;100.00
7730;BME280;3908;52.310;7.230;2023-02-28T04:06:31;51278.06;;;-145.83;100.00
7730;BME280;3908;52.310;7.230;2023-02-28T04:09:18;51244.81;;;-145.83;100.00
7730;BME280;3908;52.310;7.230;2023-02-28T04:12:06;51233.06;;;-145.83;100.00
7730;BME280;3908;52.310;7.230;2023-02-28T04:14:53;51260.47;;;-145.83;100.00
7730;BME280;3908;52.310;7.230;2023-02-28T04:17:40;51217.44;;;-145.83;100.00
7730;BME280;3908;52.310;7.230;2023-02-28T04:20:28;51283.94;;;-145.83;100.00
7730;BME280;3908;52.310;7.230;2023-02-28T04:23:15;51295.69;;;-145.83;100.00
7730;BME280;3908;52.310;7.230;2023-02-28T04:26:02;51272.22;;;-145.83;100.00
7730;BME280;3908;52.310;7.230;2023-02-28T04:28:51;51278.06;;;-145.83;100.00
7730;BME280;3908;52.310;7.230;2023-02-28T04:31:38;51242.84;;;-145.83;100.00
7730;BME280;3908;52.310;7.230;2023-02-28T04:34:26;51289.81;;;-145.83;100.00
7730;BME280;3908;52.310;7.230;2023-02-28T04:37:14;51276.13;;;-145.83;100.00
7730;BME280;3908;52.310;7.230;2023-02-28T04:40:01;51280.03;;;-145.83;100.00
7730;BME280;3908;52.310;7.230;2023-02-28T04:42:49;51287.84;;;-145.83;100.00
7730;BME280;3908;52.310;7.230;2023-02-28T04:45:36;51254.59;;;-145.83;100.00
7730;BME280;3908;52.310;7.230;2023-02-28T04:48:23;51311.31;;;-145.83;100.00
7730;BME280;3908;52.310;7.230;2023-02-28T04:51:12;51274.16;;;-145.83;100.00
7730;BME280;3908;52.310;7.230;2023-02-28T04:54:01;51276.13;;;-145.83;100.00
7730;BME280;3908;52.310;7.230;2023-02-28T04:56:48;51278.06;;;-145.83;100.00
7730;BME280;3908;52.310;7.230;2023-02-28T04:59:35;51248.72;;;-145.83;100.00
7730;BME280;3908;52.310;7.230;2023-02-28T05:02:22;51250.69;;;-145.83;100.00
7730;BME280;3908;52.310;7.230;2023-02-28T05:05:10;51289.81;;;-145.83;100.00
7730;BME280;3908;52.310;7.230;2023-02-28T05:07:57;51258.50;;;-145.83;100.00
7730;BME280;3908;52.310;7.230;2023-02-28T05:10:46;51274.16;;;-145.83;100.00
7730;BME280;3908;52.310;7.230;2023-02-28T05:13:33;51309.38;;;-145.83;100.00
7730;BME280;3908;52.310;7.230;2023-02-28T05:16:20;51276.13;;;-145.83;100.00
7730;BME280;3908;52.310;7.230;2023-02-28T05:19:07;51287.84;;;-145.83;100.00
7730;BME280;3908;52.310;7.230;2023-02-28T05:21:55;51256.56;;;-145.83;100.00
7730;BME280;3908;52.310;7.230;2023-02-28T05:24:42;51260.47;;;-145.83;100.00
7730;BME280;3908;52.310;7.230;2023-02-28T05:27:30;51274.16;;;-145.83;100.00
7730;BME280;3908;52.310;7.230;2023-02-28T05:30:17;51285.91;;;-145.83;100.00
7730;BME280;3908;52.310;7.230;2023-02-28T05:33:04;51266.34;;;-145.83;100.00
7730;BME280;3908;52.310;7.230;2023-02-28T05:35:51;51291.75;;;-145.83;100.00
7730;BME280;3908;52.310;7.230;2023-02-28T05:38:38;51285.91;;;-145.83;100.00
7730;BME280;3908;52.310;7.230;2023-02-28T05:41:25;51287.84;;;-145.83;100.00
7730;BME280;3908;52.310;7.230;2023-02-28T05:44:15;51254.59;;;-145.83;100.00
7730;BME280;3908;52.310;7.230;2023-02-28T05:47:02;51287.84;;;-145.83;100.00
7730;BME280;3908;52.310;7.230;2023-02-28T05:49:49;51238.94;;;-145.83;100.00
7730;BME280;3908;52.310;7.230;2023-02-28T05:52:36;51289.81;;;-145.83;100.00
7730;BME280;3908;52.310;7.230;2023-02-28T05:55:23;51291.75;;;-145.83;100.00
7730;BME280;3908;52.310;7.230;2023-02-28T05:58:10;51248.72;;;-145.83;100.00
7730;BME280;3908;52.310;7.230;2023-02-28T06:00:59;51276.13;;;-145.83;100.00
7730;BME280;3908;52.310;7.230;2023-02-28T06:03:46;51274.16;;;-145.83;100.00
7730;BME280;3908;52.310;7.230;2023-02-28T06:06:33;51289.81;;;-145.83;100.00
7730;BME280;3908;52.310;7.230;2023-02-28T06:09:21;51244.81;;;-145.83;100.00
7730;BME280;3908;52.310;7.230;2023-02-28T06:12:10;51272.22;;;-145.83;100.00
7730;BME280;3908;52.310;7.230;2023-02-28T06:14:57;51305.47;;;-145.83;100.00
7730;BME280;3908;52.310;7.230;2023-02-28T06:17:45;51266.34;;;-145.83;100.00
7730;BME280;3908;52.310;7.230;2023-02-28T06:20:32;51285.91;;;-145.83;100.00
7730;BME280;3908;52.310;7.230;2023-02-28T06:23:20;51250.69;;;-145.83;100.00
7730;BME280;3908;52.310;7.230;2023-02-28T06:26:07;51250.69;;;-145.83;100.00
7730;BME280;3908;52.310;7.230;2023-02-28T06:28:54;51264.38;;;-145.83;100.00
7730;BME280;3908;52.310;7.230;2023-02-28T06:31:41;51254.59;;;-145.83;100.00
7730;BME280;3908;52.310;7.230;2023-02-28T06:34:30;51272.22;;;-145.83;100.00
7730;BME280;3908;52.310;7.230;2023-02-28T06:37:19;51276.13;;;-145.83;100.00
7730;BME280;3908;52.310;7.230;2023-02-28T06:40:07;51272.22;;;-145.83;100.00
7730;BME280;3908;52.310;7.230;2023-02-28T06:42:55;51278.06;;;-145.83;100.00
7730;BME280;3908;52.310;7.230;2023-02-28T06:45:43;51240.91;;;-145.83;100.00
7730;BME280;3908;52.310;7.230;2023-02-28T06:48:30;51272.22;;;-145.83;100.00
7730;BME280;3908;52.310;7.230;2023-02-28T06:51:19;51260.47;;;-145.83;100.00
7730;BME280;3908;52.310;7.230;2023-02-28T06:54:07;51297.63;;;-145.83;100.00
7730;BME280;3908;52.310;7.230;2023-02-28T06:56:57;51289.81;;;-145.83;100.00
7730;BME280;3908;52.310;7.230;2023-02-28T06:59:44;51278.06;;;-145.83;100.00
7730;BME280;3908;52.310;7.230;2023-02-28T07:02:31;51280.03;;;-145.83;100.00
7730;BME280;3908;52.310;7.230;2023-02-28T07:05:18;51270.25;;;-145.83;100.00
7730;BME280;3908;52.310;7.230;2023-02-28T07:08:06;51280.03;;;-145.83;100.00
7730;BME280;3908;52.310;7.230;2023-02-28T07:10:54;51285.91;;;-145.83;100.00
7730;BME280;3908;52.310;7.230;2023-02-28T07:13:41;51274.16;;;-145.83;100.00
7730;BME280;3908;52.310;7.230;2023-02-28T07:16:28;51256.56;;;-145.83;100.00
7730;BME280;3908;52.310;7.230;2023-02-28T07:19:15;51278.06;;;-145.83;100.00
7730;BME280;3908;52.310;7.230;2023-02-28T07:22:02;51283.94;;;-145.83;100.00
7730;BME280;3908;52.310;7.230;2023-02-28T07:24:51;51268.28;;;-145.83;100.00
7730;BME280;3908;52.310;7.230;2023-02-28T07:27:38;51274.16;;;-145.83;100.00
7730;BME280;3908;52.310;7.230;2023-02-28T07:30:25;51256.56;;;-145.83;98.90
7730;BME280;3908;52.310;7.230;2023-02-28T07:33:12;51260.47;;;-145.83;94.80
7730;BME280;3908;52.310;7.230;2023-02-28T07:36:03;51281.97;;;-145.83;85.59
7730;BME280;3908;52.310;7.230;2023-02-28T07:38:51;51293.72;;;-145.83;83.77
7730;BME280;3908;52.310;7.230;2023-02-28T07:41:40;51283.94;;;-145.83;80.75
7730;BME280;3908;52.310;7.230;2023-02-28T07:44:29;51301.53;;;-145.83;79.51
7730;BME280;3908;52.310;7.230;2023-02-28T07:47:16;51299.59;;;-145.83;76.71
7730;BME280;3908;52.310;7.230;2023-02-28T07:50:03;51285.91;;;-145.83;73.51
7730;BME280;3908;52.310;7.230;2023-02-28T07:52:50;51315.25;;;-145.83;71.85
7730;BME280;3908;52.310;7.230;2023-02-28T07:55:37;51305.47;;;-145.83;70.86
7730;BME280;3908;52.310;7.230;2023-02-28T07:58:27;51283.94;;;-145.83;68.51
7730;BME280;3908;52.310;7.230;2023-02-28T08:01:14;51280.03;;;-145.83;67.68
7730;BME280;3908;52.310;7.230;2023-02-28T08:04:03;51270.25;;;-145.83;66.22
7730;BME280;3908;52.310;7.230;2023-02-28T08:06:50;51289.81;;;-145.83;64.42
7730;BME280;3908;52.310;7.230;2023-02-28T08:09:38;51258.50;;;-145.83;63.60
7730;BME280;3908;52.310;7.230;2023-02-28T08:12:25;51309.38;;;-145.83;61.69
7730;BME280;3908;52.310;7.230;2023-02-28T08:15:14;51289.81;;;-145.83;62.23
7730;BME280;3908;52.310;7.230;2023-02-28T08:18:01;51336.75;;;-145.83;61.61
7730;BME280;3908;52.310;7.230;2023-02-28T08:20:48;51321.09;;;-145.83;60.24
7730;BME280;3908;52.310;7.230;2023-02-28T08:23:36;51313.28;;;-145.83;58.45
7730;BME280;3908;52.310;7.230;2023-02-28T08:26:23;51309.38;;;-145.83;57.17
7730;BME280;3908;52.310;7.230;2023-02-28T08:29:11;51326.97;;;-145.83;55.08
7730;BME280;3908;52.310;7.230;2023-02-28T08:31:59;51321.09;;;-145.83;55.77
7730;BME280;3908;52.310;7.230;2023-02-28T08:34:46;51305.47;;;-145.83;54.05
7730;BME280;3908;52.310;7.230;2023-02-28T08:37:33;51315.25;;;-145.83;48.82
7730;BME280;3908;52.310;7.230;2023-02-28T08:40:20;51280.03;;;-145.83;47.90
7730;BME280;3908;52.310;7.230;2023-02-28T08:43:07;51346.53;;;-145.83;46.04
7730;BME280;3908;52.310;7.230;2023-02-28T08:45:55;51281.97;;;-145.83;47.12
7730;BME280;3908;52.310;7.230;2023-02-28T08:48:44;51338.72;;;-145.83;48.06
7730;BME280;3908;52.310;7.230;2023-02-28T08:51:31;51319.16;;;-145.83;47.88
7730;BME280;3908;52.310;7.230;2023-02-28T08:54:18;51360.22;;;-145.83;47.98
7730;BME280;3908;52.310;7.230;2023-02-28T08:57:05;51321.09;;;-145.83;48.06
7730;BME280;3908;52.310;7.230;2023-02-28T08:59:52;51315.25;;;-145.83;47.73
7730;BME280;3908;52.310;7.230;2023-02-28T09:02:39;51287.84;;;-145.83;46.20
7730;BME280;3908;52.310;7.230;2023-02-28T09:05:27;51350.47;;;-145.83;45.54
7730;BME280;3908;52.310;7.230;2023-02-28T09:08:15;51313.28;;;-145.83;44.59
7730;BME280;3908;52.310;7.230;2023-02-28T09:11:03;51311.31;;;-145.83;46.08
7730;BME280;3908;52.310;7.230;2023-02-28T09:13:50;51317.19;;;-145.83;43.96
7730;BME280;3908;52.310;7.230;2023-02-28T09:16:37;51311.31;;;-145.83;43.00
7730;BME280;3908;52.310;7.230;2023-02-28T09:19:24;51321.09;;;-145.83;43.51
7730;BME280;3908;52.310;7.230;2023-02-28T09:22:12;51295.69;;;-145.83;44.33
7730;BME280;3908;52.310;7.230;2023-02-28T09:24:59;51315.25;;;-145.83;44.26
7730;BME280;3908;52.310;7.230;2023-02-28T09:27:46;51295.69;;;-145.83;43.54
7730;BME280;3908;52.310;7.230;2023-02-28T09:30:33;51305.47;;;-145.83;42.65
7730;BME280;3908;52.310;7.230;2023-02-28T09:33:21;51336.75;;;-145.83;44.27
7730;BME280;3908;52.310;7.230;2023-02-28T09:36:08;51307.41;;;-145.83;42.09
7730;BME280;3908;52.310;7.230;2023-02-28T09:38:57;51342.63;;;-145.83;41.23
7730;BME280;3908;52.310;7.230;2023-02-28T09:41:45;51356.31;;;-145.83;40.91
7730;BME280;3908;52.310;7.230;2023-02-28T09:44:38;51340.69;;;-145.83;39.27
7730;BME280;3908;52.310;7.230;2023-02-28T09:47:29;51338.72;;;-145.83;41.07
7730;BME280;3908;52.310;7.230;2023-02-28T09:50:26;51328.94;;;-145.83;41.98
7730;BME280;3908;52.310;7.230;2023-02-28T09:53:19;51348.50;;;-145.83;42.03
7730;BME280;3908;52.310;7.230;2023-02-28T09:56:11;51325.03;;;-145.83;41.36
7730;BME280;3908;52.310;7.230;2023-02-28T09:59:03;51328.94;;;-145.83;40.16
7730;BME280;3908;52.310;7.230;2023-02-28T10:01:57;51350.47;;;-145.83;41.28
7730;BME280;3908;52.310;7.230;2023-02-28T10:04:52;51326.97;;;-145.83;39.59
7730;BME280;3908;52.310;7.230;2023-02-28T10:07:50;51330.91;;;-145.83;40.05
7730;BME280;3908;52.310;7.230;2023-02-28T10:10:43;51332.84;;;-145.83;41.60
7730;BME280;3908;52.310;7.230;2023-02-28T10:13:35;51362.19;;;-145.83;40.65
7730;BME280;3908;52.310;7.230;2023-02-28T10:16:25;51348.50;;;-145.83;39.37
7730;BME280;3908;52.310;7.230;2023-02-28T10:19:20;51326.97;;;-145.83;40.99
7730;BME280;3908;52.310;7.230;2023-02-28T10:22:13;51342.63;;;-145.83;42.41
7730;BME280;3908;52.310;7.230;2023-02-28T10:25:15;51321.09;;;-145.83;40.72
7730;BME280;3908;52.310;7.230;2023-02-28T10:28:10;51295.69;;;-145.83;41.29
7730;BME280;3908;52.310;7.230;2023-02-28T10:30:59;51321.09;;;-145.83;41.78
7730;BME280;3908;52.310;7.230;2023-02-28T10:33:47;51305.47;;;-145.83;41.20
7730;BME280;3908;52.310;7.230;2023-02-28T10:36:34;51307.41;;;-145.83;41.82
7730;BME280;3908;52.310;7.230;2023-02-28T10:39:36;51330.91;;;-145.83;42.44
7730;BME280;3908;52.310;7.230;2023-02-28T10:42:25;51278.06;;;-145.83;41.20
7730;BME280;3908;52.310;7.230;2023-02-28T10:45:14;51326.97;;;-145.83;42.48
7730;BME280;3908;52.310;7.230;2023-02-28T10:48:06;51297.63;;;-145.83;43.49
7730;BME280;3908;52.310;7.230;2023-02-28T10:51:13;51330.91;;;-145.83;41.01
7730;BME280;3908;52.310;7.230;2023-02-28T10:54:02;51291.75;;;-145.83;42.41
7730;BME280;3908;52.310;7.230;2023-02-28T10:57:15;51305.47;;;-145.83;42.40
7730;BME280;3908;52.310;7.230;2023-02-28T11:00:14;51325.03;;;-145.83;43.46
7730;BME280;3908;52.310;7.230;2023-02-28T11:03:23;51307.41;;;-145.83;41.91
7730;BME280;3908;52.310;7.230;2023-02-28T11:06:16;51313.28;;;-145.83;43.85
7730;BME280;3908;52.310;7.230;2023-02-28T11:09:13;51328.94;;;-145.83;42.31
7730;BME280;3908;52.310;7.230;2023-02-28T11:12:05;51350.47;;;-145.83;42.46
7730;BME280;3908;52.310;7.230;2023-02-28T11:14:54;51293.72;;;-145.83;40.98
7730;BME280;3908;52.310;7.230;2023-02-28T11:17:42;51305.47;;;-145.83;40.72
7730;BME280;3908;52.310;7.230;2023-02-28T11:20:32;51319.16;;;-145.83;43.09
7730;BME280;3908;52.310;7.230;2023-02-28T11:23:20;51381.75;;;-145.83;42.18
7730;BME280;3908;52.310;7.230;2023-02-28T11:26:08;51309.38;;;-145.83;38.74
7730;BME280;3908;52.310;7.230;2023-02-28T11:29:08;51336.75;;;-145.83;39.45
7730;BME280;3908;52.310;7.230;2023-02-28T11:32:14;51334.81;;;-145.83;39.70
7730;BME280;3908;52.310;7.230;2023-02-28T11:35:12;51301.53;;;-145.83;39.56
7730;BME280;3908;52.310;7.230;2023-02-28T11:38:02;51332.84;;;-145.83;39.90
7730;BME280;3908;52.310;7.230;2023-02-28T11:41:02;51299.59;;;-145.83;39.32
7730;BME280;3908;52.310;7.230;2023-02-28T11:44:05;51311.31;;;-145.83;39.42
7730;BME280;3908;52.310;7.230;2023-02-28T11:47:00;51307.41;;;-145.83;39.86
7730;BME280;3908;52.310;7.230;2023-02-28T11:50:07;51317.19;;;-145.83;40.10
7730;BME280;3908;52.310;7.230;2023-02-28T11:53:03;51315.25;;;-145.83;40.93
7730;BME280;3908;52.310;7.230;2023-02-28T11:55:58;51334.81;;;-145.83;41.46
7730;BME280;3908;52.310;7.230;2023-02-28T11:58:55;51321.09;;;-145.83;41.11
7730;BME280;3908;52.310;7.230;2023-02-28T12:05:13;51328.94;;;-145.83;41.33
7730;BME280;3908;52.310;7.230;2023-02-28T12:08:17;51348.50;;;-145.83;40.69
7730;BME280;3908;52.310;7.230;2023-02-28T12:11:12;51297.63;;;-145.83;40.34
7730;BME280;3908;52.310;7.230;2023-02-28T12:14:24;51334.81;;;-145.83;41.82
7730;BME280;3908;52.310;7.230;2023-02-28T12:17:24;51326.97;;;-145.83;41.79
7730;BME280;3908;52.310;7.230;2023-02-28T12:20:18;51301.53;;;-145.83;41.23
7730;BME280;3908;52.310;7.230;2023-02-28T12:23:22;51307.41;;;-145.83;40.96
7730;BME280;3908;52.310;7.230;2023-02-28T12:26:19;51330.91;;;-145.83;41.04
7730;BME280;3908;52.310;7.230;2023-02-28T12:29:14;51330.91;;;-145.83;39.93
7730;BME280;3908;52.310;7.230;2023-02-28T12:32:08;51317.19;;;-145.83;40.32
7730;BME280;3908;52.310;7.230;2023-02-28T12:34:59;51332.84;;;-145.83;40.85
7730;BME280;3908;52.310;7.230;2023-02-28T12:37:51;51326.97;;;-145.83;39.86
7730;BME280;3908;52.310;7.230;2023-02-28T12:40:45;51305.47;;;-145.83;40.15
7730;BME280;3908;52.310;7.230;2023-02-28T12:43:37;51323.06;;;-145.83;41.48
7730;BME280;3908;52.310;7.230;2023-02-28T12:46:29;51342.63;;;-145.83;40.58
7730;BME280;3908;52.310;7.230;2023-02-28T12:49:21;51338.72;;;-145.83;39.93
7730;BME280;3908;52.310;7.230;2023-02-28T12:52:12;51334.81;;;-145.83;40.40
7730;BME280;3908;52.310;7.230;2023-02-28T12:55:04;51313.28;;;-145.83;40.41
7730;BME280;3908;52.310;7.230;2023-02-28T12:58:05;51358.28;;;-145.83;41.07
7730;BME280;3908;52.310;7.230;2023-02-28T13:04:27;51299.59;;;-145.83;42.04
7730;BME280;3908;52.310;7.230;2023-02-28T13:08:07;51305.47;;;-145.83;42.30
7730;BME280;3908;52.310;7.230;2023-02-28T13:11:00;51315.25;;;-145.83;40.39
7730;BME280;3908;52.310;7.230;2023-02-28T13:13:57;51346.53;;;-145.83;40.35
7730;BME280;3908;52.310;7.230;2023-02-28T13:17:03;51305.47;;;-145.83;40.69
7730;BME280;3908;52.310;7.230;2023-02-28T13:19:58;51344.59;;;-145.83;42.30
7730;BME280;3908;52.310;7.230;2023-02-28T13:22:47;51319.16;;;-145.83;39.99
7730;BME280;3908;52.310;7.230;2023-02-28T13:25:50;51319.16;;;-145.83;41.14
7730;BME280;3908;52.310;7.230;2023-02-28T13:32:29;51323.06;;;-145.83;41.43
7730;BME280;3908;52.310;7.230;2023-02-28T13:35:37;51297.63;;;-145.83;41.12
7730;BME280;3908;52.310;7.230;2023-02-28T13:38:33;51321.09;;;-145.83;40.84
7730;BME280;3908;52.310;7.230;2023-02-28T13:41:54;51346.53;;;-145.83;41.42
7730;BME280;3908;52.310;7.230;2023-02-28T13:48:04;51270.25;;;-145.83;41.17
7730;BME280;3908;52.310;7.230;2023-02-28T13:50:51;51311.31;;;-145.83;42.11
7730;BME280;3908;52.310;7.230;2023-02-28T13:53:55;51311.31;;;-145.83;42.24
7730;BME280;3908;52.310;7.230;2023-02-28T13:56:51;51297.63;;;-145.83;41.12
7730;BME280;3908;52.310;7.230;2023-02-28T13:59:49;51325.03;;;-145.83;42.14
7730;BME280;3908;52.310;7.230;2023-02-28T14:02:48;51332.84;;;-145.83;41.68
7730;BME280;3908;52.310;7.230;2023-02-28T14:05:42;51319.16;;;-145.83;41.85
7730;BME280;3908;52.310;7.230;2023-02-28T14:08:29;51330.91;;;-145.83;41.85
7730;BME280;3908;52.310;7.230;2023-02-28T14:11:29;51315.25;;;-145.83;41.65
7730;BME280;3908;52.310;7.230;2023-02-28T14:14:54;51317.19;;;-145.83;42.52
7730;BME280;3908;52.310;7.230;2023-02-28T14:17:42;51336.75;;;-145.83;41.36
7730;BME280;3908;52.310;7.230;2023-02-28T14:20:31;51344.59;;;-145.83;42.35
7730;BME280;3908;52.310;7.230;2023-02-28T14:23:32;51315.25;;;-145.83;41.55
7730;BME280;3908;52.310;7.230;2023-02-28T14:26:43;51319.16;;;-145.83;42.60
7730;BME280;3908;52.310;7.230;2023-02-28T14:33:25;51344.59;;;-145.83;43.39
7730;BME280;3908;52.310;7.230;2023-02-28T14:36:18;51360.22;;;-145.83;43.38
7730;BME280;3908;52.310;7.230;2023-02-28T14:39:12;51299.59;;;-145.83;43.22
7730;BME280;3908;52.310;7.230;2023-02-28T14:42:01;51330.91;;;-145.83;43.49
7730;BME280;3908;52.310;7.230;2023-02-28T14:44:54;51289.81;;;-145.83;43.46
7730;BME280;3908;52.310;7.230;2023-02-28T14:47:42;51299.59;;;-145.83;43.37
7730;BME280;3908;52.310;7.230;2023-02-28T14:50:30;51309.38;;;-145.83;44.62
7730;BME280;3908;52.310;7.230;2023-02-28T14:53:20;51323.06;;;-145.83;43.93
7730;BME280;3908;52.310;7.230;2023-02-28T14:56:20;51352.41;;;-145.83;43.09
7730;BME280;3908;52.310;7.230;2023-02-28T14:59:24;51328.94;;;-145.83;44.02
7730;BME280;3908;52.310;7.230;2023-02-28T15:02:25;51317.19;;;-145.83;43.87
7730;BME280;3908;52.310;7.230;2023-02-28T15:05:24;51285.91;;;-145.83;43.27
7730;BME280;3908;52.310;7.230;2023-02-28T15:08:13;51276.13;;;-145.83;43.77
7730;BME280;3908;52.310;7.230;2023-02-28T15:11:03;51295.69;;;-145.83;43.25
7730;BME280;3908;52.310;7.230;2023-02-28T15:13:54;51291.75;;;-145.83;42.97
7730;BME280;3908;52.310;7.230;2023-02-28T15:16:43;51291.75;;;-145.83;43.72
7730;BME280;3908;52.310;7.230;2023-02-28T15:19:32;51321.09;;;-145.83;44.80
7730;BME280;3908;52.310;7.230;2023-02-28T15:22:28;51283.94;;;-145.83;44.76
7730;BME280;3908;52.310;7.230;2023-02-28T15:25:20;51287.84;;;-145.83;44.54